Pagrindinis puslapis
METAR-TAF:

METAR-TAF

Oro uostai :

Jämsä, Suomija

platuma: 61-51N, ilguma: 024-48E, Aukštis: 143 m

Dabartinis oras

Ataskaita buvo paskelbta 19 minutes, ne 10:20 UTC
Vėjas 11 kt iš Vakarų
Temperatūra 2°C
Drėgmė 93%
Slėgis 975 hPa
Matomumas: 6000 m
Apsiniaukę ne aukštis 700 ft
dulksna

METAR: EFHA 091020Z 26011KT 6000 -DZ OVC007 02/01 Q0975

Laikas: 12:39 (10:39 UTC)

Prognozė

Ataskaita buvo paskelbta 2 valandos ir 13 minutes, ne 08:26 UTC
Prognozė galioja nuo 09 metu 09 UTC su 09 metu 14 UTC
Vėjas 12 kt iš Vakarų/Pietvakarių
Matomumas: 8000 m
Su prošvaistėmis ne aukštis 1200 ft
lietus
Laikinai
nuo 09 metu 09 UTC su 09 metu 11 UTC
Vėjas 15 kt iš Pietvakarių su gūsio iki 25 kt
Matomumas: 6000 m
Su prošvaistėmis ne aukštis 900 ft
Tapsmas
nuo 09 metu 11 UTC su 09 metu 14 UTC
Matomumas: 4000 m
sniegas, lietus

TAF: EFHA 090826Z 0909/0914 25012KT 8000 -RA BKN012 TEMPO 0909/0911 22015G25KT 6000 BKN009 BECMG 0911/0914 4000 -SNRA

Orai ataskaitas ir orų prognozės (METAR, TAF).

turimą stotys yra geltonos ir raudonos taškus žemėlapyje.

Perkelti pele per norėdami pamatyti stoties vardą.

Tada spustelėkite, norėdami matyti oro stebėjimo ir prognozės.

Norėdami pakeisti žemėlapį: spustelėkite ant žalios mygtukų su juodo kryžiaus žemyn,; žalią mygtuką su brūkšneliu, jei norite nutolinti; arba žalių rodyklių gretimoms žemėlapius.


METAR-TAF: